Time,TemperatureF,DewpointF,PressureIn,WindDirection,WindDirectionDegrees,WindSpeedMPH,WindSpeedGustMPH,Humidity,HourlyPrecipIn,Conditions,Clouds,dailyrainin,SoftwareType,DateUTC
2013-06-06 00:01:00,71.6,67.9,29.90,North,0,0.0,0.0,88,0.00,,,0.00,WUHU216HW,2013-06-06 04:01:00,
2013-06-06 00:04:00,71.6,67.9,29.90,North,0,0.0,0.0,88,0.00,,,0.00,WUHU216HW,2013-06-06 04:04:00,
2013-06-06 00:09:00,71.6,67.9,29.90,North,0,0.0,0.0,88,0.00,,,0.00,WUHU216HW,2013-06-06 04:09:00,
2013-06-06 00:14:00,71.6,67.9,29.89,North,0,0.0,0.0,88,0.00,,,0.00,WUHU216HW,2013-06-06 04:14:00,
2013-06-06 00:19:00,71.6,67.9,29.89,North,0,0.0,0.0,88,0.00,,,0.00,WUHU216HW,2013-06-06 04:19:00,
2013-06-06 00:24:00,71.6,67.9,29.89,North,0,0.0,0.0,88,0.00,,,0.00,WUHU216HW,2013-06-06 04:24:00,
2013-06-06 00:29:00,71.6,67.9,29.89,North,0,0.0,0.0,88,0.00,,,0.00,WUHU216HW,2013-06-06 04:29:00,
2013-06-06 00:35:00,71.6,67.9,29.89,North,0,0.0,0.0,88,0.00,,,0.00,WUHU216HW,2013-06-06 04:35:00,
2013-06-06 00:40:00,71.6,67.9,29.89,North,0,0.0,0.0,88,0.00,,,0.00,WUHU216HW,2013-06-06 04:40:00,
2013-06-06 00:45:00,71.6,67.9,29.89,North,0,0.0,0.0,88,0.00,,,0.00,WUHU216HW,2013-06-06 04:45:00,
2013-06-06 00:50:00,71.6,67.9,29.89,North,0,0.0,0.0,88,0.00,,,0.00,WUHU216HW,2013-06-06 04:50:00,
2013-06-06 00:55:00,71.6,67.9,29.89,North,0,0.0,0.0,88,0.00,,,0.00,WUHU216HW,2013-06-06 04:55:00,
2013-06-06 01:00:00,71.6,67.9,29.88,North,0,0.0,0.0,88,0.00,,,0.00,WUHU216HW,2013-06-06 05:00:00,
2013-06-06 01:05:00,71.6,67.9,29.88,North,0,0.0,0.0,88,0.00,,,0.00,WUHU216HW,2013-06-06 05:05:00,
2013-06-06 01:10:00,71.6,67.9,29.88,North,0,0.0,0.0,88,0.00,,,0.00,WUHU216HW,2013-06-06 05:10:00,
2013-06-06 01:15:00,71.6,67.9,29.87,North,0,0.0,0.0,88,0.00,,,0.00,WUHU216HW,2013-06-06 05:15:00,
2013-06-06 01:20:00,71.6,67.9,29.87,North,0,0.0,0.0,88,0.00,,,0.00,WUHU216HW,2013-06-06 05:20:00,
2013-06-06 01:25:00,71.6,67.9,29.87,North,0,0.0,0.0,88,0.00,,,0.00,WUHU216HW,2013-06-06 05:25:00,
2013-06-06 01:30:00,71.6,68.2,29.87,North,0,0.0,0.0,89,0.00,,,0.00,WUHU216HW,2013-06-06 05:30:00,
2013-06-06 01:35:00,71.6,67.9,29.87,North,0,0.0,0.0,88,0.00,,,0.00,WUHU216HW,2013-06-06 05:35:00,
2013-06-06 01:40:00,71.6,68.2,29.87,North,0,0.0,0.0,89,0.00,,,0.00,WUHU216HW,2013-06-06 05:40:00,
2013-06-06 01:45:00,71.6,68.2,29.87,North,0,0.0,0.0,89,0.00,,,0.00,WUHU216HW,2013-06-06 05:45:00,
2013-06-06 01:51:00,71.6,68.2,29.87,North,0,0.0,0.0,89,0.00,,,0.00,WUHU216HW,2013-06-06 05:51:00,
2013-06-06 01:56:00,71.6,68.2,29.87,North,0,0.0,0.0,89,0.00,,,0.00,WUHU216HW,2013-06-06 05:56:00,
2013-06-06 02:01:00,71.6,68.2,29.86,North,0,0.0,0.0,89,0.00,,,0.00,WUHU216HW,2013-06-06 06:01:00,
2013-06-06 02:06:00,71.6,68.2,29.86,North,0,0.0,0.0,89,0.00,,,0.00,WUHU216HW,2013-06-06 06:06:00,
2013-06-06 02:11:00,71.6,68.2,29.86,North,0,0.0,0.0,89,0.00,,,0.00,WUHU216HW,2013-06-06 06:11:00,
2013-06-06 02:16:00,71.6,68.2,29.86,North,0,0.0,0.0,89,0.00,,,0.00,WUHU216HW,2013-06-06 06:16:00,
2013-06-06 02:21:00,71.6,68.2,29.86,North,0,0.0,0.0,89,0.00,,,0.00,WUHU216HW,2013-06-06 06:21:00,
2013-06-06 02:26:00,71.6,68.2,29.85,North,0,0.0,0.0,89,0.00,,,0.00,WUHU216HW,2013-06-06 06:26:00,
2013-06-06 02:31:00,71.6,68.2,29.85,North,0,0.0,0.0,89,0.00,,,0.00,WUHU216HW,2013-06-06 06:31:00,
2013-06-06 02:36:00,71.6,68.2,29.85,North,0,0.0,0.0,89,0.00,,,0.00,WUHU216HW,2013-06-06 06:36:00,
2013-06-06 02:42:00,71.6,68.2,29.85,North,0,0.0,0.0,89,0.00,,,0.00,WUHU216HW,2013-06-06 06:42:00,
2013-06-06 02:47:00,71.5,68.0,29.85,North,0,0.0,0.0,89,0.00,,,0.00,WUHU216HW,2013-06-06 06:47:00,
2013-06-06 02:52:00,71.5,68.0,29.85,North,0,0.0,0.0,89,0.00,,,0.00,WUHU216HW,2013-06-06 06:52:00,
2013-06-06 02:57:00,71.6,68.6,29.85,North,0,0.0,0.0,90,0.00,,,0.00,WUHU216HW,2013-06-06 06:57:00,
2013-06-06 03:02:00,71.6,68.6,29.85,North,0,0.0,0.0,90,0.00,,,0.00,WUHU216HW,2013-06-06 07:02:00,
2013-06-06 03:07:00,71.6,68.6,29.84,North,0,0.0,0.0,90,0.00,,,0.00,WUHU216HW,2013-06-06 07:07:00,
2013-06-06 03:12:00,71.6,68.6,29.84,North,0,0.0,0.0,90,0.00,,,0.00,WUHU216HW,2013-06-06 07:12:00,
2013-06-06 03:17:00,71.6,68.6,29.84,North,0,0.0,0.0,90,0.00,,,0.00,WUHU216HW,2013-06-06 07:17:00,
2013-06-06 03:22:00,71.6,68.6,29.84,North,0,0.0,0.0,90,0.00,,,0.00,WUHU216HW,2013-06-06 07:22:00,
2013-06-06 03:27:00,71.6,68.6,29.84,North,0,0.0,0.0,90,0.00,,,0.00,WUHU216HW,2013-06-06 07:27:00,
2013-06-06 03:32:00,71.6,68.6,29.83,North,0,0.0,0.0,90,0.00,,,0.00,WUHU216HW,2013-06-06 07:32:00,
2013-06-06 03:37:00,71.6,68.6,29.83,North,0,0.0,0.0,90,0.00,,,0.00,WUHU216HW,2013-06-06 07:37:00,
2013-06-06 03:43:00,71.6,68.6,29.83,North,0,0.0,0.0,90,0.00,,,0.00,WUHU216HW,2013-06-06 07:43:00,
2013-06-06 03:48:00,71.6,68.6,29.83,North,0,0.0,0.0,90,0.00,,,0.00,WUHU216HW,2013-06-06 07:48:00,
2013-06-06 03:53:00,71.5,68.4,29.83,North,0,0.0,0.0,90,0.00,,,0.00,WUHU216HW,2013-06-06 07:53:00,
2013-06-06 03:58:00,71.5,68.4,29.83,North,0,0.0,0.0,90,0.00,,,0.00,WUHU216HW,2013-06-06 07:58:00,
2013-06-06 04:03:00,71.5,68.4,29.83,North,0,0.0,0.0,90,0.00,,,0.00,WUHU216HW,2013-06-06 08:03:00,
2013-06-06 04:08:00,71.5,68.4,29.82,North,0,0.0,0.0,90,0.00,,,0.00,WUHU216HW,2013-06-06 08:08:00,
2013-06-06 04:13:00,71.5,68.4,29.82,North,0,0.0,0.0,90,0.00,,,0.00,WUHU216HW,2013-06-06 08:13:00,
2013-06-06 04:18:00,71.3,68.2,29.82,North,0,0.0,0.0,90,0.00,,,0.00,WUHU216HW,2013-06-06 08:18:00,
2013-06-06 04:23:00,71.3,68.2,29.82,North,0,0.0,0.0,90,0.00,,,0.00,WUHU216HW,2013-06-06 08:23:00,
2013-06-06 04:28:00,71.3,68.2,29.82,North,0,0.0,0.0,90,0.00,,,0.00,WUHU216HW,2013-06-06 08:28:00,
2013-06-06 04:33:00,71.3,68.2,29.82,North,0,0.0,0.0,90,0.00,,,0.00,WUHU216HW,2013-06-06 08:33:00,
2013-06-06 04:38:00,71.3,68.2,29.82,North,0,0.0,0.0,90,0.00,,,0.00,WUHU216HW,2013-06-06 08:38:00,
2013-06-06 04:43:00,71.3,68.2,29.82,North,0,0.0,0.0,90,0.00,,,0.00,WUHU216HW,2013-06-06 08:43:00,
2013-06-06 04:49:00,71.3,68.2,29.82,North,0,0.0,0.0,90,0.00,,,0.00,WUHU216HW,2013-06-06 08:49:00,
2013-06-06 04:54:00,71.3,68.2,29.82,North,0,0.0,0.0,90,0.00,,,0.00,WUHU216HW,2013-06-06 08:54:00,
2013-06-06 04:59:00,71.3,68.2,29.81,North,0,0.0,0.0,90,0.00,,,0.00,WUHU216HW,2013-06-06 08:59:00,
2013-06-06 05:04:00,71.1,68.0,29.81,North,0,0.0,0.0,90,0.00,,,0.00,WUHU216HW,2013-06-06 09:04:00,
2013-06-06 05:09:00,71.1,68.0,29.81,North,0,0.0,0.0,90,0.00,,,0.00,WUHU216HW,2013-06-06 09:09:00,
2013-06-06 05:14:00,71.1,68.0,29.81,North,0,0.0,0.0,90,0.00,,,0.00,WUHU216HW,2013-06-06 09:14:00,
2013-06-06 05:19:00,71.1,68.0,29.81,North,0,0.0,0.0,90,0.00,,,0.00,WUHU216HW,2013-06-06 09:19:00,
2013-06-06 05:24:00,70.9,67.9,29.81,North,0,0.0,0.0,90,0.00,,,0.00,WUHU216HW,2013-06-06 09:24:00,
2013-06-06 05:29:00,70.9,67.9,29.81,North,0,0.0,0.0,90,0.00,,,0.00,WUHU216HW,2013-06-06 09:29:00,
2013-06-06 05:34:00,70.9,67.9,29.81,North,0,0.0,0.0,90,0.00,,,0.00,WUHU216HW,2013-06-06 09:34:00,
2013-06-06 05:39:00,70.9,67.9,29.81,North,0,0.0,0.0,90,0.00,,,0.00,WUHU216HW,2013-06-06 09:39:00,
2013-06-06 05:44:00,70.9,67.9,29.81,North,0,0.0,0.0,90,0.00,,,0.00,WUHU216HW,2013-06-06 09:44:00,
2013-06-06 05:49:00,70.9,67.9,29.81,North,0,0.0,0.0,90,0.00,,,0.00,WUHU216HW,2013-06-06 09:49:00,
2013-06-06 05:54:00,70.9,67.9,29.81,North,0,0.0,0.0,90,0.00,,,0.00,WUHU216HW,2013-06-06 09:54:00,
2013-06-06 05:59:00,70.9,67.9,29.81,North,0,0.0,0.0,90,0.00,,,0.00,WUHU216HW,2013-06-06 09:59:00,
2013-06-06 06:05:00,70.9,67.9,29.80,North,0,0.0,0.0,90,0.00,,,0.00,WUHU216HW,2013-06-06 10:05:00,
2013-06-06 06:10:00,70.9,67.9,29.81,North,0,0.0,0.0,90,0.00,,,0.00,WUHU216HW,2013-06-06 10:10:00,
2013-06-06 06:15:00,70.9,67.9,29.80,North,0,0.0,0.0,90,0.00,,,0.00,WUHU216HW,2013-06-06 10:15:00,
2013-06-06 06:20:00,70.9,67.9,29.81,North,0,0.0,0.0,90,0.00,,,0.00,WUHU216HW,2013-06-06 10:20:00,
2013-06-06 06:25:00,70.9,67.9,29.81,North,0,0.0,0.0,90,0.00,,,0.00,WUHU216HW,2013-06-06 10:25:00,
2013-06-06 06:30:00,70.9,67.9,29.81,North,0,0.0,0.0,90,0.00,,,0.00,WUHU216HW,2013-06-06 10:30:00,
2013-06-06 06:35:00,70.9,67.9,29.81,North,0,0.0,0.0,90,0.00,,,0.00,WUHU216HW,2013-06-06 10:35:00,
2013-06-06 06:40:00,71.1,68.0,29.81,North,0,0.0,0.0,90,0.00,,,0.00,WUHU216HW,2013-06-06 10:40:00,
2013-06-06 06:45:00,71.1,68.0,29.81,North,0,0.0,0.0,90,0.00,,,0.00,WUHU216HW,2013-06-06 10:45:00,
2013-06-06 06:50:00,71.1,68.0,29.81,North,0,0.0,0.0,90,0.00,,,0.00,WUHU216HW,2013-06-06 10:50:00,
2013-06-06 06:55:00,71.1,68.0,29.81,North,0,0.0,0.0,90,0.00,,,0.00,WUHU216HW,2013-06-06 10:55:00,
2013-06-06 07:00:00,71.1,68.0,29.81,North,0,0.0,0.0,90,0.00,,,0.00,WUHU216HW,2013-06-06 11:00:00,
2013-06-06 07:05:00,71.1,68.0,29.81,North,0,0.0,0.0,90,0.00,,,0.00,WUHU216HW,2013-06-06 11:05:00,
2013-06-06 07:10:00,71.1,68.0,29.81,North,0,0.0,0.0,90,0.00,,,0.00,WUHU216HW,2013-06-06 11:10:00,
2013-06-06 07:16:00,71.1,68.0,29.81,North,0,0.0,0.0,90,0.00,,,0.00,WUHU216HW,2013-06-06 11:16:00,
2013-06-06 07:21:00,71.1,68.0,29.81,North,0,0.0,0.0,90,0.00,,,0.00,WUHU216HW,2013-06-06 11:21:00,
2013-06-06 07:26:00,70.9,67.9,29.81,North,0,0.0,0.0,90,0.00,,,0.00,WUHU216HW,2013-06-06 11:26:00,
2013-06-06 07:31:00,70.9,67.9,29.81,North,0,0.0,0.0,90,0.00,,,0.00,WUHU216HW,2013-06-06 11:31:00,
2013-06-06 07:36:00,71.1,68.0,29.81,North,0,0.0,0.0,90,0.00,,,0.00,WUHU216HW,2013-06-06 11:36:00,
2013-06-06 07:41:00,71.1,68.0,29.80,North,0,0.0,0.0,90,0.00,,,0.00,WUHU216HW,2013-06-06 11:41:00,
2013-06-06 07:46:00,71.1,68.0,29.80,North,0,0.0,0.0,90,0.00,,,0.00,WUHU216HW,2013-06-06 11:46:00,
2013-06-06 07:51:00,71.1,68.0,29.80,North,0,0.0,0.0,90,0.00,,,0.00,WUHU216HW,2013-06-06 11:51:00,
2013-06-06 07:56:00,71.1,68.0,29.80,North,0,0.0,0.0,90,0.00,,,0.00,WUHU216HW,2013-06-06 11:56:00,
2013-06-06 08:01:00,71.1,68.0,29.80,North,0,0.0,0.0,90,0.00,,,0.00,WUHU216HW,2013-06-06 12:01:00,
2013-06-06 08:06:00,71.1,68.0,29.80,North,0,0.0,0.0,90,0.00,,,0.00,WUHU216HW,2013-06-06 12:06:00,
2013-06-06 08:12:00,71.1,68.3,29.80,North,0,0.0,0.0,91,0.00,,,0.00,WUHU216HW,2013-06-06 12:12:00,
2013-06-06 08:17:00,71.1,68.3,29.80,North,0,0.0,0.0,91,0.00,,,0.00,WUHU216HW,2013-06-06 12:17:00,
2013-06-06 08:22:00,71.3,68.5,29.80,North,0,0.0,0.0,91,0.00,,,0.00,WUHU216HW,2013-06-06 12:22:00,
2013-06-06 08:27:00,71.3,68.5,29.80,North,0,0.0,0.0,91,0.00,,,0.00,WUHU216HW,2013-06-06 12:27:00,
2013-06-06 08:32:00,71.3,68.5,29.80,North,0,0.0,0.0,91,0.00,,,0.00,WUHU216HW,2013-06-06 12:32:00,
2013-06-06 08:37:00,71.3,68.5,29.80,North,0,0.0,0.0,91,0.00,,,0.00,WUHU216HW,2013-06-06 12:37:00,
2013-06-06 08:42:00,71.5,68.7,29.80,North,0,0.0,0.0,91,0.00,,,0.00,WUHU216HW,2013-06-06 12:42:00,
2013-06-06 08:47:00,71.5,68.7,29.81,North,0,0.0,0.0,91,0.00,,,0.00,WUHU216HW,2013-06-06 12:47:00,
2013-06-06 08:52:00,71.5,68.7,29.81,North,0,0.0,0.0,91,0.00,,,0.00,WUHU216HW,2013-06-06 12:52:00,
2013-06-06 08:57:00,71.6,68.9,29.81,North,0,0.0,0.0,91,0.00,,,0.00,WUHU216HW,2013-06-06 12:57:00,
2013-06-06 09:02:00,71.6,68.9,29.80,North,0,0.0,0.0,91,0.00,,,0.00,WUHU216HW,2013-06-06 13:02:00,
2013-06-06 09:07:00,71.6,68.9,29.80,North,0,0.0,0.0,91,0.00,,,0.00,WUHU216HW,2013-06-06 13:07:00,
2013-06-06 09:12:00,71.6,68.9,29.80,North,0,0.0,0.0,91,0.00,,,0.00,WUHU216HW,2013-06-06 13:12:00,
2013-06-06 09:17:00,71.8,69.0,29.80,North,0,0.0,0.0,91,0.00,,,0.00,WUHU216HW,2013-06-06 13:17:00,
2013-06-06 09:23:00,71.8,69.0,29.80,North,0,0.0,0.0,91,0.00,,,0.00,WUHU216HW,2013-06-06 13:23:00,
2013-06-06 09:28:00,71.8,69.0,29.80,North,0,0.0,0.0,91,0.00,,,0.00,WUHU216HW,2013-06-06 13:28:00,
2013-06-06 09:33:00,72.0,69.2,29.80,North,0,0.0,0.0,91,0.00,,,0.00,WUHU216HW,2013-06-06 13:33:00,
2013-06-06 09:38:00,72.0,69.2,29.80,North,0,0.0,0.0,91,0.00,,,0.00,WUHU216HW,2013-06-06 13:38:00,
2013-06-06 09:43:00,72.0,69.2,29.80,North,0,0.0,0.0,91,0.00,,,0.00,WUHU216HW,2013-06-06 13:43:00,
2013-06-06 09:48:00,72.0,69.2,29.80,North,0,0.0,0.0,91,0.00,,,0.00,WUHU216HW,2013-06-06 13:48:00,
2013-06-06 09:53:00,72.2,69.4,29.80,North,0,0.0,0.0,91,0.00,,,0.00,WUHU216HW,2013-06-06 13:53:00,
2013-06-06 09:58:00,72.2,69.4,29.80,North,0,0.0,0.0,91,0.00,,,0.00,WUHU216HW,2013-06-06 13:58:00,
2013-06-06 10:03:00,72.2,69.4,29.80,North,0,0.0,0.0,91,0.00,,,0.00,WUHU216HW,2013-06-06 14:03:00,
2013-06-06 10:08:00,72.4,69.6,29.80,North,0,0.0,0.0,91,0.00,,,0.00,WUHU216HW,2013-06-06 14:08:00,
2013-06-06 10:13:00,72.4,69.6,29.79,North,0,0.0,0.0,91,0.00,,,0.00,WUHU216HW,2013-06-06 14:13:00,
2013-06-06 10:18:00,72.4,69.6,29.80,North,0,0.0,0.0,91,0.00,,,0.00,WUHU216HW,2013-06-06 14:18:00,
2013-06-06 10:23:00,72.4,69.6,29.79,North,0,0.0,0.0,91,0.00,,,0.00,WUHU216HW,2013-06-06 14:23:00,
2013-06-06 10:28:00,72.4,69.6,29.79,North,0,0.0,0.0,91,0.00,,,0.00,WUHU216HW,2013-06-06 14:28:00,
2013-06-06 10:33:00,72.5,69.8,29.80,North,0,0.0,0.0,91,0.00,,,0.00,WUHU216HW,2013-06-06 14:33:00,
2013-06-06 10:38:00,72.7,69.9,29.80,North,0,0.0,0.0,91,0.00,,,0.00,WUHU216HW,2013-06-06 14:38:00,
2013-06-06 10:43:00,72.7,69.9,29.80,North,0,0.0,0.0,91,0.00,,,0.00,WUHU216HW,2013-06-06 14:43:00,
2013-06-06 10:48:00,72.7,69.7,29.79,North,0,0.0,0.0,90,0.00,,,0.00,WUHU216HW,2013-06-06 14:48:00,
2013-06-06 10:53:00,72.9,69.8,29.79,North,0,0.0,0.0,90,0.00,,,0.00,WUHU216HW,2013-06-06 14:53:00,
2013-06-06 10:58:00,73.1,70.3,29.79,North,0,0.0,0.0,91,0.00,,,0.00,WUHU216HW,2013-06-06 14:58:00,
2013-06-06 11:04:00,73.1,70.0,29.80,North,0,0.0,0.0,90,0.00,,,0.00,WUHU216HW,2013-06-06 15:04:00,
2013-06-06 11:09:00,73.1,70.3,29.79,North,0,0.0,0.0,91,0.00,,,0.00,WUHU216HW,2013-06-06 15:09:00,
2013-06-06 11:14:00,73.3,70.5,29.79,North,0,0.0,0.0,91,0.00,,,0.00,WUHU216HW,2013-06-06 15:14:00,
2013-06-06 11:19:00,73.3,70.5,29.79,North,0,0.0,0.0,91,0.00,,,0.00,WUHU216HW,2013-06-06 15:19:00,
2013-06-06 11:24:00,73.3,70.5,29.79,North,0,0.0,0.0,91,0.00,,,0.00,WUHU216HW,2013-06-06 15:24:00,
2013-06-06 11:29:00,73.4,70.7,29.79,North,0,0.0,0.0,91,0.00,,,0.00,WUHU216HW,2013-06-06 15:29:00,
2013-06-06 11:34:00,73.4,71.0,29.79,North,0,0.0,0.0,92,0.00,,,0.00,WUHU216HW,2013-06-06 15:34:00,
2013-06-06 11:39:00,73.6,71.2,29.80,North,0,0.0,0.0,92,0.00,,,0.00,WUHU216HW,2013-06-06 15:39:00,
2013-06-06 11:44:00,73.8,71.4,29.79,North,0,0.0,0.0,92,0.00,,,0.00,WUHU216HW,2013-06-06 15:44:00,
2013-06-06 11:49:00,73.8,71.4,29.79,North,0,0.0,0.0,92,0.00,,,0.00,WUHU216HW,2013-06-06 15:49:00,
2013-06-06 11:54:00,73.8,71.4,29.79,North,0,0.0,0.0,92,0.00,,,0.00,WUHU216HW,2013-06-06 15:54:00,
2013-06-06 11:59:00,73.8,71.4,29.79,North,0,0.0,0.0,92,0.00,,,0.00,WUHU216HW,2013-06-06 15:59:00,
2013-06-06 12:04:00,74.0,71.6,29.79,North,0,0.0,0.0,92,0.00,,,0.00,WUHU216HW,2013-06-06 16:04:00,
2013-06-06 12:09:00,74.2,71.7,29.79,North,0,0.0,0.0,92,0.00,,,0.00,WUHU216HW,2013-06-06 16:09:00,
2013-06-06 12:14:00,74.2,71.7,29.79,North,0,0.0,0.0,92,0.00,,,0.00,WUHU216HW,2013-06-06 16:14:00,
2013-06-06 12:19:00,74.3,71.9,29.78,North,0,0.0,0.0,92,0.00,,,0.00,WUHU216HW,2013-06-06 16:19:00,
2013-06-06 12:24:00,74.3,71.9,29.78,North,0,0.0,0.0,92,0.00,,,0.00,WUHU216HW,2013-06-06 16:24:00,
2013-06-06 12:30:00,74.3,71.9,29.78,North,0,0.0,0.0,92,0.00,,,0.00,WUHU216HW,2013-06-06 16:30:00,
2013-06-06 12:35:00,74.3,71.9,29.78,North,0,0.0,0.0,92,0.00,,,0.00,WUHU216HW,2013-06-06 16:35:00,
2013-06-06 12:40:00,74.3,71.9,29.78,North,0,0.0,0.0,92,0.00,,,0.00,WUHU216HW,2013-06-06 16:40:00,
2013-06-06 12:45:00,74.3,71.9,29.78,North,0,0.0,0.0,92,0.00,,,0.00,WUHU216HW,2013-06-06 16:45:00,
2013-06-06 12:50:00,74.3,71.9,29.78,North,0,0.0,0.0,92,0.00,,,0.00,WUHU216HW,2013-06-06 16:50:00,
2013-06-06 12:55:00,74.3,71.9,29.78,North,0,0.0,0.0,92,0.00,,,0.00,WUHU216HW,2013-06-06 16:55:00,
2013-06-06 13:00:00,74.3,71.9,29.78,North,0,0.0,0.0,92,0.00,,,0.00,WUHU216HW,2013-06-06 17:00:00,
2013-06-06 13:05:00,74.2,71.7,29.78,North,0,0.0,0.0,92,0.00,,,0.00,WUHU216HW,2013-06-06 17:05:00,
2013-06-06 13:10:00,74.2,71.4,29.78,North,0,0.0,0.0,91,0.00,,,0.00,WUHU216HW,2013-06-06 17:10:00,
2013-06-06 13:15:00,73.8,71.0,29.77,North,0,0.0,0.0,91,0.00,,,0.00,WUHU216HW,2013-06-06 17:15:00,
2013-06-06 13:20:00,73.8,71.4,29.77,North,0,0.0,0.0,92,0.00,,,0.00,WUHU216HW,2013-06-06 17:20:00,
2013-06-06 13:25:00,74.0,71.6,29.76,North,0,0.0,0.0,92,0.00,,,0.00,WUHU216HW,2013-06-06 17:25:00,
2013-06-06 13:30:00,74.2,71.7,29.76,North,0,0.0,0.0,92,0.00,,,0.00,WUHU216HW,2013-06-06 17:30:00,
2013-06-06 13:35:00,74.5,72.1,29.76,North,0,0.0,0.0,92,0.00,,,0.00,WUHU216HW,2013-06-06 17:35:00,
2013-06-06 13:41:00,74.7,72.3,29.76,North,0,0.0,0.0,92,0.00,,,0.00,WUHU216HW,2013-06-06 17:41:00,
2013-06-06 13:46:00,74.9,72.5,29.76,North,0,0.0,0.0,92,0.00,,,0.00,WUHU216HW,2013-06-06 17:46:00,
2013-06-06 13:51:00,75.2,72.8,29.76,North,0,0.0,0.0,92,0.00,,,0.00,WUHU216HW,2013-06-06 17:51:00,
2013-06-06 13:56:00,75.6,73.2,29.75,North,0,0.0,0.0,92,0.00,,,0.00,WUHU216HW,2013-06-06 17:56:00,
2013-06-06 14:01:00,75.8,73.4,29.75,North,0,0.0,0.0,92,0.00,,,0.00,WUHU216HW,2013-06-06 18:01:00,
2013-06-06 14:06:00,76.0,73.5,29.75,North,0,0.0,0.0,92,0.00,,,0.00,WUHU216HW,2013-06-06 18:06:00,
2013-06-06 14:11:00,76.0,73.5,29.75,North,0,0.0,0.0,92,0.00,,,0.00,WUHU216HW,2013-06-06 18:11:00,
2013-06-06 14:16:00,76.1,73.7,29.75,North,0,0.0,0.0,92,0.00,,,0.00,WUHU216HW,2013-06-06 18:16:00,
2013-06-06 14:22:00,76.3,73.9,29.75,North,0,0.0,0.0,92,0.00,,,0.00,WUHU216HW,2013-06-06 18:22:00,
2013-06-06 14:27:00,76.5,73.7,29.74,North,0,0.0,0.0,91,0.00,,,0.00,WUHU216HW,2013-06-06 18:27:00,
2013-06-06 14:32:00,76.5,73.7,29.74,North,0,0.0,0.0,91,0.00,,,0.00,WUHU216HW,2013-06-06 18:32:00,
2013-06-06 14:37:00,76.7,73.9,29.74,North,0,0.0,0.0,91,0.00,,,0.00,WUHU216HW,2013-06-06 18:37:00,
2013-06-06 14:42:00,76.9,74.1,29.74,North,0,0.0,0.0,91,0.00,,,0.00,WUHU216HW,2013-06-06 18:42:00,
2013-06-06 14:47:00,76.9,74.1,29.73,North,0,0.0,0.0,91,0.00,,,0.00,WUHU216HW,2013-06-06 18:47:00,
2013-06-06 14:52:00,77.0,74.3,29.74,North,0,0.0,0.0,91,0.00,,,0.00,WUHU216HW,2013-06-06 18:52:00,
2013-06-06 14:57:00,76.9,73.8,29.73,North,0,0.0,0.0,90,0.00,,,0.00,WUHU216HW,2013-06-06 18:57:00,
2013-06-06 15:02:00,76.9,73.8,29.73,North,0,0.0,0.0,90,0.00,,,0.00,WUHU216HW,2013-06-06 19:02:00,
2013-06-06 15:07:00,76.7,73.6,29.73,North,0,0.0,0.0,90,0.00,,,0.00,WUHU216HW,2013-06-06 19:07:00,
2013-06-06 15:12:00,76.7,73.6,29.73,North,0,0.0,0.0,90,0.00,,,0.00,WUHU216HW,2013-06-06 19:12:00,
2013-06-06 15:17:00,76.7,73.6,29.74,North,0,0.0,0.0,90,0.00,,,0.00,WUHU216HW,2013-06-06 19:17:00,
2013-06-06 15:23:00,76.5,73.1,29.74,North,0,0.0,0.0,89,0.00,,,0.00,WUHU216HW,2013-06-06 19:23:00,
2013-06-06 15:28:00,76.5,73.1,29.74,North,0,0.0,0.0,89,0.00,,,0.00,WUHU216HW,2013-06-06 19:28:00,
2013-06-06 15:33:00,76.3,72.9,29.74,North,0,0.0,0.0,89,0.00,,,0.00,WUHU216HW,2013-06-06 19:33:00,
2013-06-06 15:34:00,76.3,72.9,29.74,North,0,0.0,0.0,89,0.00,,,0.00,WUHU216HW,2013-06-06 19:34:00,
2013-06-06 15:39:00,76.1,72.7,29.74,North,0,0.0,0.0,89,0.00,,,0.00,WUHU216HW,2013-06-06 19:39:00,
2013-06-06 15:44:00,76.0,72.5,29.74,North,0,0.0,0.0,89,0.00,,,0.00,WUHU216HW,2013-06-06 19:44:00,
2013-06-06 15:49:00,75.8,72.4,29.75,North,0,0.0,0.0,89,0.00,,,0.00,WUHU216HW,2013-06-06 19:49:00,
2013-06-06 15:54:00,75.2,71.8,29.75,North,0,0.0,0.0,89,0.00,,,0.00,WUHU216HW,2013-06-06 19:54:00,
2013-06-06 15:59:00,74.9,71.5,29.75,North,0,0.0,0.0,89,0.00,,,0.00,WUHU216HW,2013-06-06 19:59:00,
2013-06-06 16:04:00,74.7,71.3,29.75,North,0,0.0,0.0,89,0.00,,,0.00,WUHU216HW,2013-06-06 20:04:00,
2013-06-06 16:09:00,74.5,71.1,29.75,North,0,0.0,0.0,89,0.00,,,0.00,WUHU216HW,2013-06-06 20:09:00,
2013-06-06 16:14:00,74.3,70.9,29.75,North,0,0.0,0.0,89,0.00,,,0.00,WUHU216HW,2013-06-06 20:14:00,
2013-06-06 16:19:00,74.2,70.7,29.75,North,0,0.0,0.0,89,0.00,,,0.00,WUHU216HW,2013-06-06 20:19:00,
2013-06-06 16:24:00,74.2,70.7,29.75,North,0,0.0,0.0,89,0.00,,,0.00,WUHU216HW,2013-06-06 20:24:00,
2013-06-06 16:29:00,74.2,70.7,29.75,North,0,0.0,0.0,89,0.00,,,0.00,WUHU216HW,2013-06-06 20:29:00,
2013-06-06 16:34:00,74.2,71.1,29.75,North,0,0.0,0.0,90,0.00,,,0.00,WUHU216HW,2013-06-06 20:34:00,
2013-06-06 16:39:00,74.3,71.3,29.74,North,0,0.0,0.0,90,0.00,,,0.00,WUHU216HW,2013-06-06 20:39:00,
2013-06-06 16:45:00,74.3,71.3,29.74,North,0,0.0,0.0,90,0.00,,,0.00,WUHU216HW,2013-06-06 20:45:00,
2013-06-06 16:50:00,74.2,71.1,29.74,North,0,0.0,0.0,90,0.00,,,0.00,WUHU216HW,2013-06-06 20:50:00,
2013-06-06 16:55:00,74.2,71.1,29.74,North,0,0.0,0.0,90,0.00,,,0.00,WUHU216HW,2013-06-06 20:55:00,
2013-06-06 17:00:00,74.2,71.1,29.74,North,0,0.0,0.0,90,0.00,,,0.00,WUHU216HW,2013-06-06 21:00:00,
2013-06-06 17:05:00,74.3,71.3,29.74,North,0,0.0,0.0,90,0.00,,,0.00,WUHU216HW,2013-06-06 21:05:00,
2013-06-06 17:10:00,74.3,71.3,29.74,North,0,0.0,0.0,90,0.00,,,0.00,WUHU216HW,2013-06-06 21:10:00,
2013-06-06 17:15:00,74.3,71.6,29.74,North,0,0.0,0.0,91,0.00,,,0.00,WUHU216HW,2013-06-06 21:15:00,
2013-06-06 17:20:00,74.3,71.6,29.74,North,0,0.0,0.0,91,0.00,,,0.00,WUHU216HW,2013-06-06 21:20:00,
2013-06-06 17:25:00,74.3,71.6,29.74,North,0,0.0,0.0,91,0.00,,,0.00,WUHU216HW,2013-06-06 21:25:00,
2013-06-06 17:30:00,74.3,71.6,29.74,North,0,0.0,0.0,91,0.00,,,0.00,WUHU216HW,2013-06-06 21:30:00,
2013-06-06 17:35:00,74.2,71.4,29.73,North,0,0.0,0.0,91,0.00,,,0.00,WUHU216HW,2013-06-06 21:35:00,
2013-06-06 17:40:00,74.2,71.4,29.73,North,0,0.0,0.0,91,0.00,,,0.00,WUHU216HW,2013-06-06 21:40:00,
2013-06-06 17:45:00,74.2,71.4,29.73,North,0,0.0,0.0,91,0.00,,,0.00,WUHU216HW,2013-06-06 21:45:00,
2013-06-06 17:50:00,74.2,71.4,29.73,North,0,0.0,0.0,91,0.00,,,0.00,WUHU216HW,2013-06-06 21:50:00,
2013-06-06 17:55:00,74.2,71.4,29.73,North,0,0.0,0.0,91,0.00,,,0.00,WUHU216HW,2013-06-06 21:55:00,
2013-06-06 18:00:00,74.0,71.2,29.73,North,0,0.0,0.0,91,0.00,,,0.00,WUHU216HW,2013-06-06 22:00:00,
2013-06-06 18:06:00,74.0,71.2,29.73,North,0,0.0,0.0,91,0.00,,,0.00,WUHU216HW,2013-06-06 22:06:00,
2013-06-06 18:11:00,74.0,71.2,29.73,North,0,0.0,0.0,91,0.00,,,0.00,WUHU216HW,2013-06-06 22:11:00,
2013-06-06 18:16:00,74.0,71.2,29.72,North,0,0.0,0.0,91,0.00,,,0.00,WUHU216HW,2013-06-06 22:16:00,
2013-06-06 18:21:00,74.0,71.2,29.72,North,0,0.0,0.0,91,0.00,,,0.00,WUHU216HW,2013-06-06 22:21:00,
2013-06-06 18:26:00,74.0,71.2,29.72,North,0,0.0,0.0,91,0.00,,,0.00,WUHU216HW,2013-06-06 22:26:00,
2013-06-06 18:31:00,74.3,71.6,29.72,North,0,0.0,0.0,91,0.00,,,0.00,WUHU216HW,2013-06-06 22:31:00,
2013-06-06 18:36:00,74.3,71.6,29.72,North,0,0.0,0.0,91,0.00,,,0.00,WUHU216HW,2013-06-06 22:36:00,
2013-06-06 18:41:00,74.5,71.7,29.72,North,0,0.0,0.0,91,0.00,,,0.00,WUHU216HW,2013-06-06 22:41:00,
2013-06-06 18:46:00,74.9,72.1,29.72,North,0,0.0,0.0,91,0.00,,,0.00,WUHU216HW,2013-06-06 22:46:00,
2013-06-06 18:52:00,74.9,72.1,29.72,North,0,0.0,0.0,91,0.00,,,0.00,WUHU216HW,2013-06-06 22:52:00,
2013-06-06 18:57:00,75.1,72.3,29.72,North,0,0.0,0.0,91,0.00,,,0.00,WUHU216HW,2013-06-06 22:57:00,
2013-06-06 19:02:00,75.1,72.0,29.73,North,0,0.0,0.0,90,0.00,,,0.00,WUHU216HW,2013-06-06 23:02:00,
2013-06-06 19:07:00,74.9,71.8,29.73,North,0,0.0,0.0,90,0.00,,,0.00,WUHU216HW,2013-06-06 23:07:00,
2013-06-06 19:12:00,74.9,71.8,29.73,North,0,0.0,0.0,90,0.00,,,0.00,WUHU216HW,2013-06-06 23:12:00,
2013-06-06 19:17:00,74.9,71.8,29.73,North,0,0.0,0.0,90,0.00,,,0.00,WUHU216HW,2013-06-06 23:17:00,
2013-06-06 19:22:00,74.7,71.6,29.73,North,0,0.0,0.0,90,0.00,,,0.00,WUHU216HW,2013-06-06 23:22:00,
2013-06-06 19:27:00,74.5,71.5,29.73,North,0,0.0,0.0,90,0.00,,,0.00,WUHU216HW,2013-06-06 23:27:00,
2013-06-06 19:32:00,74.5,71.5,29.73,North,0,0.0,0.0,90,0.00,,,0.00,WUHU216HW,2013-06-06 23:32:00,
2013-06-06 19:37:00,74.5,71.5,29.73,North,0,0.0,0.0,90,0.00,,,0.00,WUHU216HW,2013-06-06 23:37:00,
2013-06-06 19:42:00,74.3,71.3,29.73,North,0,0.0,0.0,90,0.00,,,0.00,WUHU216HW,2013-06-06 23:42:00,
2013-06-06 19:47:00,74.2,71.1,29.73,North,0,0.0,0.0,90,0.00,,,0.00,WUHU216HW,2013-06-06 23:47:00,
2013-06-06 19:52:00,74.2,71.1,29.73,North,0,0.0,0.0,90,0.00,,,0.00,WUHU216HW,2013-06-06 23:52:00,
2013-06-06 19:57:00,74.2,71.1,29.73,North,0,0.0,0.0,90,0.00,,,0.00,WUHU216HW,2013-06-06 23:57:00,
2013-06-06 20:02:00,74.2,71.1,29.73,North,0,0.0,0.0,90,0.00,,,0.00,WUHU216HW,2013-06-07 00:02:00,
2013-06-06 20:07:00,74.0,70.9,29.73,North,0,0.0,0.0,90,0.00,,,0.00,WUHU216HW,2013-06-07 00:07:00,
2013-06-06 20:12:00,73.8,70.7,29.74,North,0,0.0,0.0,90,0.00,,,0.00,WUHU216HW,2013-06-07 00:12:00,
2013-06-06 20:18:00,73.8,70.7,29.74,North,0,0.0,0.0,90,0.00,,,0.00,WUHU216HW,2013-06-07 00:18:00,
2013-06-06 20:23:00,73.6,70.6,29.74,North,0,0.0,0.0,90,0.00,,,0.00,WUHU216HW,2013-06-07 00:23:00,
2013-06-06 20:28:00,73.4,70.4,29.74,North,0,0.0,0.0,90,0.00,,,0.00,WUHU216HW,2013-06-07 00:28:00,
2013-06-06 20:33:00,73.3,69.8,29.74,North,0,0.0,0.0,89,0.00,,,0.00,WUHU216HW,2013-06-07 00:33:00,
2013-06-06 20:38:00,73.1,69.7,29.74,North,0,0.0,0.0,89,0.00,,,0.00,WUHU216HW,2013-06-07 00:38:00,
2013-06-06 20:43:00,73.1,69.3,29.74,North,0,0.0,0.0,88,0.00,,,0.00,WUHU216HW,2013-06-07 00:43:00,
2013-06-06 20:48:00,72.9,69.1,29.74,North,0,0.0,0.0,88,0.00,,,0.00,WUHU216HW,2013-06-07 00:48:00,
2013-06-06 20:53:00,72.7,68.9,29.74,North,0,0.0,0.0,88,0.00,,,0.00,WUHU216HW,2013-06-07 00:53:00,
2013-06-06 20:58:00,72.5,68.8,29.74,North,0,0.0,0.0,88,0.00,,,0.00,WUHU216HW,2013-06-07 00:58:00,
2013-06-06 21:03:00,72.5,69.1,29.74,North,0,0.0,0.0,89,0.00,,,0.00,WUHU216HW,2013-06-07 01:03:00,
2013-06-06 21:08:00,72.4,68.9,29.74,North,0,0.0,0.0,89,0.00,,,0.00,WUHU216HW,2013-06-07 01:08:00,
2013-06-06 21:13:00,72.4,68.9,29.74,North,0,0.0,0.0,89,0.00,,,0.00,WUHU216HW,2013-06-07 01:13:00,
2013-06-06 21:18:00,72.2,68.8,29.74,North,0,0.0,0.0,89,0.00,,,0.00,WUHU216HW,2013-06-07 01:18:00,
2013-06-06 21:24:00,72.0,68.6,29.74,North,0,0.0,0.0,89,0.00,,,0.00,WUHU216HW,2013-06-07 01:24:00,
2013-06-06 21:29:00,72.0,68.6,29.74,North,0,0.0,0.0,89,0.00,,,0.00,WUHU216HW,2013-06-07 01:29:00,
2013-06-06 21:34:00,71.6,68.2,29.74,North,0,0.0,0.0,89,0.00,,,0.00,WUHU216HW,2013-06-07 01:34:00,
2013-06-06 21:39:00,71.6,68.2,29.74,North,0,0.0,0.0,89,0.00,,,0.00,WUHU216HW,2013-06-07 01:39:00,
2013-06-06 21:44:00,71.5,68.0,29.74,North,0,0.0,0.0,89,0.00,,,0.00,WUHU216HW,2013-06-07 01:44:00,
2013-06-06 21:49:00,71.5,68.0,29.74,North,0,0.0,0.0,89,0.00,,,0.00,WUHU216HW,2013-06-07 01:49:00,
2013-06-06 21:54:00,71.3,67.9,29.74,North,0,0.0,0.0,89,0.00,,,0.00,WUHU216HW,2013-06-07 01:54:00,
2013-06-06 21:59:00,71.3,67.9,29.75,North,0,0.0,0.0,89,0.00,,,0.00,WUHU216HW,2013-06-07 01:59:00,
2013-06-06 22:04:00,71.1,67.7,29.74,North,0,0.0,0.0,89,0.00,,,0.00,WUHU216HW,2013-06-07 02:04:00,
2013-06-06 22:09:00,71.1,67.7,29.74,North,0,0.0,0.0,89,0.00,,,0.00,WUHU216HW,2013-06-07 02:09:00,
2013-06-06 22:14:00,71.1,68.0,29.74,North,0,0.0,0.0,90,0.00,,,0.00,WUHU216HW,2013-06-07 02:14:00,
2013-06-06 22:19:00,71.1,68.0,29.74,North,0,0.0,0.0,90,0.00,,,0.00,WUHU216HW,2013-06-07 02:19:00,
2013-06-06 22:24:00,70.9,67.9,29.74,North,0,0.0,0.0,90,0.00,,,0.00,WUHU216HW,2013-06-07 02:24:00,
2013-06-06 22:29:00,70.9,67.9,29.74,North,0,0.0,0.0,90,0.00,,,0.00,WUHU216HW,2013-06-07 02:29:00,
2013-06-06 22:34:00,70.9,67.9,29.74,North,0,0.0,0.0,90,0.00,,,0.00,WUHU216HW,2013-06-07 02:34:00,
2013-06-06 22:39:00,70.9,67.9,29.74,North,0,0.0,0.0,90,0.00,,,0.00,WUHU216HW,2013-06-07 02:39:00,
2013-06-06 22:44:00,70.9,67.9,29.74,North,0,0.0,0.0,90,0.00,,,0.00,WUHU216HW,2013-06-07 02:44:00,
2013-06-06 22:49:00,70.7,67.7,29.74,North,0,0.0,0.0,90,0.00,,,0.00,WUHU216HW,2013-06-07 02:49:00,
2013-06-06 22:54:00,70.7,67.7,29.74,North,0,0.0,0.0,90,0.00,,,0.00,WUHU216HW,2013-06-07 02:54:00,
2013-06-06 22:59:00,70.7,67.7,29.74,North,0,0.0,0.0,90,0.00,,,0.00,WUHU216HW,2013-06-07 02:59:00,
2013-06-06 23:04:00,70.7,67.7,29.74,North,0,0.0,0.0,90,0.00,,,0.00,WUHU216HW,2013-06-07 03:04:00,
2013-06-06 23:10:00,70.7,67.7,29.74,North,0,0.0,0.0,90,0.00,,,0.00,WUHU216HW,2013-06-07 03:10:00,
2013-06-06 23:15:00,70.6,67.5,29.74,North,0,0.0,0.0,90,0.00,,,0.00,WUHU216HW,2013-06-07 03:15:00,
2013-06-06 23:20:00,70.7,67.7,29.73,North,0,0.0,0.0,90,0.00,,,0.00,WUHU216HW,2013-06-07 03:20:00,
2013-06-06 23:25:00,70.6,67.5,29.73,North,0,0.0,0.0,90,0.00,,,0.00,WUHU216HW,2013-06-07 03:25:00,
2013-06-06 23:30:00,70.6,67.5,29.73,North,0,0.0,0.0,90,0.00,,,0.00,WUHU216HW,2013-06-07 03:30:00,
2013-06-06 23:35:00,70.6,67.5,29.73,North,0,0.0,0.0,90,0.00,,,0.00,WUHU216HW,2013-06-07 03:35:00,
2013-06-06 23:40:00,70.6,67.5,29.73,North,0,0.0,0.0,90,0.00,,,0.00,WUHU216HW,2013-06-07 03:40:00,
2013-06-06 23:45:00,70.6,67.5,29.73,North,0,0.0,0.0,90,0.00,,,0.00,WUHU216HW,2013-06-07 03:45:00,
2013-06-06 23:50:00,70.4,67.3,29.73,North,0,0.0,0.0,90,0.00,,,0.00,WUHU216HW,2013-06-07 03:50:00,
2013-06-06 23:55:00,70.4,67.3,29.73,North,0,0.0,0.0,90,0.00,,,0.00,WUHU216HW,2013-06-07 03:55:00,